createdAt,value
2022-12-03T00:00:30.044Z,20.85
2022-12-03T00:01:01.491Z,18.98
2022-12-03T00:01:32.939Z,20.60
2022-12-03T00:02:04.483Z,19.88
2022-12-03T00:02:36.176Z,21.10
2022-12-03T00:03:07.849Z,21.85
2022-12-03T00:03:39.500Z,21.27
2022-12-03T00:04:11.735Z,20.40
2022-12-03T00:04:43.197Z,19.73
2022-12-03T00:05:14.688Z,22.13
2022-12-03T00:05:49.030Z,21.33
2022-12-03T00:06:20.954Z,20.88
2022-12-03T00:06:52.537Z,20.67
2022-12-03T00:07:24.077Z,19.75
2022-12-03T00:07:55.654Z,19.63
2022-12-03T00:08:27.157Z,21.20
2022-12-03T00:08:58.628Z,22.90
2022-12-03T00:09:30.213Z,21.00
2022-12-03T00:10:01.756Z,20.30
2022-12-03T00:10:33.206Z,20.00
2022-12-03T00:11:04.813Z,20.27
2022-12-03T00:11:36.255Z,20.08
2022-12-03T00:12:07.733Z,18.50
2022-12-03T00:12:39.205Z,22.10
2022-12-03T00:13:10.692Z,20.42
2022-12-03T00:13:42.321Z,20.42
2022-12-03T00:14:13.886Z,19.42
2022-12-03T00:14:45.343Z,20.23
2022-12-03T00:15:16.974Z,21.15
2022-12-03T00:15:48.570Z,21.45
2022-12-03T00:16:20.104Z,21.45
2022-12-03T00:16:51.684Z,19.77
2022-12-03T00:17:23.138Z,22.60
2022-12-03T00:17:54.700Z,19.98
2022-12-03T00:18:26.158Z,22.10
2022-12-03T00:18:57.775Z,19.73
2022-12-03T00:19:29.412Z,20.67
2022-12-03T00:20:00.845Z,20.98
2022-12-03T00:20:32.348Z,21.70
2022-12-03T00:21:04.937Z,21.65
2022-12-03T00:21:36.393Z,21.02
2022-12-03T00:22:07.833Z,21.55
2022-12-03T00:22:39.328Z,21.95
2022-12-03T00:23:10.992Z,19.58
2022-12-03T00:23:42.667Z,21.08
2022-12-03T00:24:14.202Z,21.70
2022-12-03T00:24:45.723Z,20.25
2022-12-03T00:25:17.610Z,21.54
2022-12-03T00:25:49.054Z,21.45
2022-12-03T00:26:20.941Z,20.67
2022-12-03T00:26:53.235Z,21.10
2022-12-03T00:27:24.740Z,20.88
2022-12-03T00:27:56.223Z,20.02
2022-12-03T00:28:27.704Z,22.58
2022-12-03T00:28:59.188Z,22.13
2022-12-03T00:29:30.657Z,22.08
2022-12-03T00:30:02.109Z,20.33
2022-12-03T00:30:33.617Z,20.30
2022-12-03T00:31:05.525Z,20.25
2022-12-03T00:31:37.107Z,20.60
2022-12-03T00:32:08.666Z,21.10
2022-12-03T00:32:40.104Z,21.73
2022-12-03T00:33:11.598Z,19.58
2022-12-03T00:33:43.048Z,22.27
2022-12-03T00:34:14.529Z,21.35
2022-12-03T00:34:46.105Z,22.05
2022-12-03T00:35:17.744Z,20.58
2022-12-03T00:35:49.265Z,20.73
2022-12-03T00:36:20.760Z,20.70
2022-12-03T00:36:52.211Z,22.95
2022-12-03T00:37:23.675Z,20.70
2022-12-03T00:37:55.966Z,20.63
2022-12-03T00:38:27.525Z,23.65
2022-12-03T00:38:59.094Z,20.88
2022-12-03T00:39:30.605Z,20.83
2022-12-03T00:40:04.262Z,21.83
2022-12-03T00:40:35.735Z,20.45
2022-12-03T00:41:07.396Z,23.30
2022-12-03T00:41:38.836Z,21.00
2022-12-03T00:42:10.285Z,22.88
2022-12-03T00:42:41.925Z,21.45
2022-12-03T00:43:13.469Z,21.50
2022-12-03T00:43:44.955Z,21.10
2022-12-03T00:44:16.758Z,20.52
2022-12-03T00:44:48.402Z,21.55
2022-12-03T00:45:19.873Z,21.05
2022-12-03T00:45:51.409Z,21.35
2022-12-03T00:46:24.385Z,22.50
2022-12-03T00:46:55.986Z,22.38
2022-12-03T00:47:27.504Z,20.30
2022-12-03T00:47:59.061Z,21.52
2022-12-03T00:48:30.512Z,19.80
2022-12-03T00:49:02.889Z,22.90
2022-12-03T00:49:34.388Z,21.50
2022-12-03T00:50:06.652Z,20.17
2022-12-03T00:50:38.264Z,20.27
2022-12-03T00:51:09.733Z,19.92
2022-12-03T00:51:41.216Z,21.50
2022-12-03T00:52:12.690Z,20.95
2022-12-03T00:52:44.259Z,20.13
2022-12-03T00:53:15.745Z,22.42
2022-12-03T00:53:47.221Z,20.15
2022-12-03T00:54:18.656Z,22.25
2022-12-03T00:54:50.385Z,22.27
2022-12-03T00:55:22.198Z,20.67
2022-12-03T00:55:53.631Z,22.05
2022-12-03T00:56:25.136Z,22.05
2022-12-03T00:56:56.658Z,23.02
2022-12-03T00:57:28.161Z,22.02
2022-12-03T00:57:59.665Z,22.23
2022-12-03T00:58:31.105Z,21.75
2022-12-03T00:59:02.550Z,19.33
2022-12-03T00:59:34.045Z,21.88
2022-12-03T01:00:06.404Z,22.38
2022-12-03T01:00:38.053Z,21.02
2022-12-03T01:01:09.531Z,20.73
2022-12-03T01:01:41.098Z,22.52
2022-12-03T01:02:12.655Z,22.95
2022-12-03T01:02:44.178Z,22.67
2022-12-03T01:03:15.655Z,21.75
2022-12-03T01:03:47.114Z,20.17
2022-12-03T01:04:18.718Z,22.88
2022-12-03T01:04:50.503Z,21.55
2022-12-03T01:05:22.250Z,23.05
2022-12-03T01:05:53.777Z,21.13
2022-12-03T01:06:25.230Z,21.70
2022-12-03T01:06:56.716Z,22.23
2022-12-03T01:07:28.208Z,22.88
2022-12-03T01:07:59.826Z,21.38
2022-12-03T01:08:31.346Z,20.30
2022-12-03T01:09:03.066Z,21.73
2022-12-03T01:09:34.765Z,21.35
2022-12-03T01:10:07.017Z,23.73
2022-12-03T01:10:38.534Z,22.58
2022-12-03T01:11:30.082Z,21.27
2022-12-03T01:12:01.577Z,21.80
2022-12-03T01:12:33.022Z,20.83
2022-12-03T01:13:04.475Z,21.65
2022-12-03T01:13:35.942Z,22.67
2022-12-03T01:14:10.374Z,22.25
2022-12-03T01:14:41.812Z,23.08
2022-12-03T01:15:13.315Z,22.15
2022-12-03T01:15:44.807Z,21.70
2022-12-03T01:16:16.352Z,22.30
2022-12-03T01:16:48.395Z,21.35
2022-12-03T01:17:20.116Z,20.50
2022-12-03T01:17:51.633Z,22.50
2022-12-03T01:18:23.146Z,21.80
2022-12-03T01:18:54.746Z,23.13
2022-12-03T01:19:26.220Z,23.02
2022-12-03T01:19:59.090Z,21.98
2022-12-03T01:20:30.577Z,21.92
2022-12-03T01:21:02.028Z,20.30
2022-12-03T01:21:33.876Z,21.15
2022-12-03T01:22:05.324Z,21.98
2022-12-03T01:22:36.874Z,21.60
2022-12-03T01:23:08.412Z,21.95
2022-12-03T01:23:39.867Z,21.10
2022-12-03T01:24:11.467Z,21.45
2022-12-03T01:24:43.812Z,22.70
2022-12-03T01:25:15.453Z,22.48
2022-12-03T01:25:46.927Z,23.20
2022-12-03T01:26:18.389Z,20.52
2022-12-03T01:26:49.917Z,20.88
2022-12-03T01:27:21.368Z,23.23
2022-12-03T01:27:53.099Z,21.75
2022-12-03T01:28:24.613Z,20.70
2022-12-03T01:28:56.097Z,21.70
2022-12-03T01:29:27.676Z,22.10
2022-12-03T01:29:59.092Z,21.55
2022-12-03T01:30:50.602Z,22.85
2022-12-03T01:31:42.406Z,22.70
2022-12-03T01:32:16.727Z,22.02
2022-12-03T01:32:48.185Z,21.98
2022-12-03T01:33:19.670Z,21.42
2022-12-03T01:33:51.112Z,21.92
2022-12-03T01:34:22.564Z,22.05
2022-12-03T01:34:55.739Z,22.48
2022-12-03T01:35:27.531Z,21.30
2022-12-03T01:35:58.978Z,22.52
2022-12-03T01:36:30.517Z,21.98
2022-12-03T01:37:02.121Z,22.17
2022-12-03T01:37:33.774Z,21.83
2022-12-03T01:38:05.234Z,21.92
2022-12-03T01:38:36.702Z,22.90
2022-12-03T01:39:08.317Z,20.58
2022-12-03T01:39:40.283Z,21.17
2022-12-03T01:40:13.793Z,21.63
2022-12-03T01:40:45.252Z,20.13
2022-12-03T01:41:17.840Z,20.75
2022-12-03T01:41:50.519Z,22.77
2022-12-03T01:42:28.132Z,22.05
2022-12-03T01:42:59.605Z,23.52
2022-12-03T01:43:31.289Z,24.80
2022-12-03T01:44:04.592Z,24.30
2022-12-03T01:44:37.274Z,23.23
2022-12-03T01:45:21.377Z,22.50
2022-12-03T01:45:52.914Z,21.15
2022-12-03T01:46:37.768Z,21.10
2022-12-03T01:47:14.124Z,21.92
2022-12-03T01:47:45.605Z,22.77
2022-12-03T01:48:17.307Z,21.30
2022-12-03T01:48:50.634Z,21.33
2022-12-03T01:49:26.441Z,20.20
2022-12-03T01:50:21.022Z,20.83
2022-12-03T01:50:52.486Z,22.35
2022-12-03T01:51:24.013Z,22.08
2022-12-03T01:51:56.559Z,22.13
2022-12-03T01:52:31.589Z,23.67
2022-12-03T01:53:04.503Z,23.30
2022-12-03T01:53:36.294Z,22.02
2022-12-03T01:54:16.260Z,22.50
2022-12-03T01:54:51.455Z,21.05
2022-12-03T01:55:24.436Z,23.30
2022-12-03T01:55:55.982Z,22.08
2022-12-03T01:56:27.860Z,23.83
2022-12-03T01:56:59.392Z,22.27
2022-12-03T01:57:40.805Z,24.38
2022-12-03T01:58:14.320Z,23.80
2022-12-03T01:58:46.448Z,23.67
2022-12-03T01:59:19.698Z,24.62
2022-12-03T01:59:52.884Z,23.77
2022-12-03T02:00:27.053Z,22.08
2022-12-03T02:01:02.050Z,23.23
2022-12-03T02:01:33.598Z,22.38
2022-12-03T02:02:12.628Z,21.95
2022-12-03T02:02:45.564Z,21.77
2022-12-03T02:03:19.685Z,23.63
2022-12-03T02:03:51.467Z,22.13
2022-12-03T02:04:23.712Z,23.45
2022-12-03T02:04:56.342Z,20.88
2022-12-03T02:05:31.857Z,22.20
2022-12-03T02:06:03.518Z,22.85
2022-12-03T02:06:35.040Z,21.42
2022-12-03T02:07:33.556Z,22.00
2022-12-03T02:08:29.510Z,23.23
2022-12-03T02:09:01.063Z,22.20
2022-12-03T02:09:32.507Z,22.48
2022-12-03T02:10:04.528Z,22.63
2022-12-03T02:10:37.671Z,23.35
2022-12-03T02:11:30.136Z,22.98
2022-12-03T02:12:01.569Z,22.85
2022-12-03T02:12:39.994Z,21.85
2022-12-03T02:13:11.669Z,22.73
2022-12-03T02:13:43.531Z,23.60
2022-12-03T02:14:20.325Z,22.90
2022-12-03T02:14:52.308Z,22.20
2022-12-03T02:15:24.168Z,22.33
2022-12-03T02:15:55.694Z,24.30
2022-12-03T02:16:27.370Z,21.70
2022-12-03T02:17:00.259Z,23.42
2022-12-03T02:17:32.021Z,24.00
2022-12-03T02:18:03.656Z,22.63
2022-12-03T02:18:35.158Z,22.95
2022-12-03T02:19:24.904Z,23.58
2022-12-03T02:19:56.488Z,22.85
2022-12-03T02:20:28.006Z,21.85
2022-12-03T02:21:09.806Z,23.40
2022-12-03T02:22:07.605Z,22.55
2022-12-03T02:23:07.227Z,22.35
2022-12-03T02:23:57.863Z,21.88
2022-12-03T02:24:36.737Z,23.42
2022-12-03T02:25:23.663Z,23.73
2022-12-03T02:25:55.183Z,22.48
2022-12-03T02:26:26.728Z,23.17
2022-12-03T02:26:58.174Z,22.77
2022-12-03T02:27:29.779Z,24.90
2022-12-03T02:28:01.945Z,20.50
2022-12-03T02:28:33.439Z,22.92
2022-12-03T02:29:04.965Z,23.50
2022-12-03T02:29:36.843Z,23.95
2022-12-03T02:30:09.668Z,25.20
2022-12-03T02:30:41.143Z,24.48
2022-12-03T02:31:12.768Z,23.63
2022-12-03T02:31:44.661Z,22.40
2022-12-03T02:32:16.142Z,24.88
2022-12-03T02:32:48.638Z,24.58
2022-12-03T02:33:20.115Z,23.50
2022-12-03T02:33:51.608Z,23.02
2022-12-03T02:34:43.621Z,22.76
2022-12-03T02:35:17.200Z,23.02
2022-12-03T02:35:48.960Z,21.73
2022-12-03T02:36:20.806Z,25.65
2022-12-03T02:36:52.249Z,24.00
2022-12-03T02:37:33.700Z,22.65
2022-12-03T02:38:15.443Z,25.42
2022-12-03T02:38:48.031Z,22.58
2022-12-03T02:39:19.627Z,22.98
2022-12-03T02:39:54.943Z,24.38
2022-12-03T02:40:29.332Z,24.85
2022-12-03T02:41:04.659Z,23.92
2022-12-03T02:41:54.681Z,23.85
2022-12-03T02:42:35.434Z,23.35
2022-12-03T02:43:06.962Z,22.98
2022-12-03T02:43:38.545Z,23.67
2022-12-03T02:44:10.304Z,23.17
2022-12-03T02:44:41.784Z,25.23
2022-12-03T02:45:26.361Z,22.33
2022-12-03T02:46:00.320Z,24.27
2022-12-03T02:46:32.017Z,22.35
2022-12-03T02:47:03.765Z,21.95
2022-12-03T02:47:38.723Z,22.08
2022-12-03T02:48:14.321Z,24.10
2022-12-03T02:48:45.771Z,21.40
2022-12-03T02:49:17.221Z,21.75
2022-12-03T02:49:49.347Z,23.38
2022-12-03T02:50:24.873Z,22.48
2022-12-03T02:50:59.770Z,23.70
2022-12-03T02:51:31.416Z,24.35
2022-12-03T02:52:03.463Z,22.00
2022-12-03T02:52:35.118Z,23.08
2022-12-03T02:53:19.485Z,22.45
2022-12-03T02:53:52.185Z,20.48
2022-12-03T02:54:23.904Z,20.90
2022-12-03T02:54:55.813Z,23.98
2022-12-03T02:55:33.505Z,21.73
2022-12-03T02:56:09.073Z,22.15
2022-12-03T02:56:40.644Z,22.27
2022-12-03T02:57:12.145Z,22.15
2022-12-03T02:57:46.005Z,23.25
2022-12-03T02:58:18.027Z,23.08
2022-12-03T02:58:51.939Z,23.05
2022-12-03T02:59:23.603Z,22.48
2022-12-03T02:59:55.142Z,21.90
2022-12-03T03:00:26.797Z,22.98
2022-12-03T03:00:59.068Z,25.08
2022-12-03T03:01:31.115Z,23.58
2022-12-03T03:02:02.718Z,21.02
2022-12-03T03:02:34.746Z,22.92
2022-12-03T03:03:06.810Z,23.60
2022-12-03T03:03:38.556Z,23.75
2022-12-03T03:04:10.133Z,23.15
2022-12-03T03:04:42.039Z,24.15
2022-12-03T03:05:14.071Z,24.77
2022-12-03T03:05:45.558Z,23.00
2022-12-03T03:06:18.352Z,24.35
2022-12-03T03:06:49.808Z,22.67
2022-12-03T03:07:21.478Z,21.90
2022-12-03T03:07:53.085Z,21.23
2022-12-03T03:08:25.476Z,22.58
2022-12-03T03:08:57.298Z,20.92
2022-12-03T03:09:28.764Z,23.23
2022-12-03T03:10:01.071Z,21.60
2022-12-03T03:10:33.275Z,22.90
2022-12-03T03:11:05.034Z,22.08
2022-12-03T03:11:36.506Z,23.90
2022-12-03T03:12:08.230Z,20.83
2022-12-03T03:12:40.055Z,21.58
2022-12-03T03:13:19.073Z,22.95
2022-12-03T03:13:50.568Z,21.23
2022-12-03T03:14:22.067Z,20.50
2022-12-03T03:14:53.861Z,20.95
2022-12-03T03:15:25.584Z,21.33
2022-12-03T03:15:57.265Z,21.60
2022-12-03T03:16:28.888Z,21.83
2022-12-03T03:17:00.483Z,21.80
2022-12-03T03:17:32.217Z,22.00
2022-12-03T03:18:04.718Z,20.88
2022-12-03T03:18:36.625Z,22.92
2022-12-03T03:19:08.600Z,23.58
2022-12-03T03:19:40.097Z,21.05
2022-12-03T03:20:12.354Z,22.52
2022-12-03T03:20:44.209Z,22.30
2022-12-03T03:21:15.693Z,24.38
2022-12-03T03:21:47.263Z,20.15
2022-12-03T03:22:18.789Z,20.50
2022-12-03T03:22:50.285Z,20.27
2022-12-03T03:23:23.349Z,20.58
2022-12-03T03:23:54.801Z,17.35
2022-12-03T03:24:26.668Z,22.13
2022-12-03T03:24:58.123Z,20.67
2022-12-03T03:25:29.617Z,21.38
2022-12-03T03:26:03.812Z,20.85
2022-12-03T03:26:35.514Z,19.50
2022-12-03T03:27:07.173Z,21.45
2022-12-03T03:27:40.287Z,22.08
2022-12-03T03:28:12.119Z,18.52
2022-12-03T03:28:46.982Z,17.05
2022-12-03T03:29:19.072Z,15.40
2022-12-03T03:29:50.994Z,20.58
2022-12-03T03:30:22.469Z,20.40
2022-12-03T03:30:54.193Z,20.25
2022-12-03T03:31:25.743Z,20.95
2022-12-03T03:31:58.205Z,19.48
2022-12-03T03:32:30.481Z,18.13
2022-12-03T03:33:02.001Z,18.70
2022-12-03T03:33:33.887Z,18.20
2022-12-03T03:34:05.380Z,20.50
2022-12-03T03:34:36.850Z,18.73
2022-12-03T03:35:09.891Z,19.10
2022-12-03T03:35:42.241Z,19.95
2022-12-03T03:36:14.376Z,20.20
2022-12-03T03:36:46.142Z,19.67
2022-12-03T03:37:17.588Z,17.60
2022-12-03T03:37:49.107Z,20.90
2022-12-03T03:38:21.131Z,19.52
2022-12-03T03:38:52.937Z,18.60
2022-12-03T03:39:24.712Z,18.52
2022-12-03T03:39:56.188Z,16.88
2022-12-03T03:40:28.172Z,17.30
2022-12-03T03:41:02.198Z,16.83
2022-12-03T03:41:34.377Z,18.23
2022-12-03T03:42:05.860Z,17.70
2022-12-03T03:42:37.931Z,17.63
2022-12-03T03:43:09.606Z,19.48
2022-12-03T03:43:42.508Z,17.27
2022-12-03T03:44:14.253Z,17.10
2022-12-03T03:44:48.009Z,15.73
2022-12-03T03:45:24.004Z,15.63
2022-12-03T03:45:59.039Z,17.58
2022-12-03T03:46:33.163Z,17.65
2022-12-03T03:47:04.836Z,17.05
2022-12-03T03:47:36.957Z,19.48
2022-12-03T03:48:08.503Z,20.27
2022-12-03T03:48:41.617Z,18.40
2022-12-03T03:49:13.244Z,18.75
2022-12-03T03:49:44.793Z,18.35
2022-12-03T03:50:16.432Z,17.17
2022-12-03T03:50:48.225Z,17.95
2022-12-03T03:51:20.069Z,19.13
2022-12-03T03:51:51.617Z,18.10
2022-12-03T03:52:23.221Z,19.23
2022-12-03T03:52:55.396Z,19.17
2022-12-03T03:53:26.978Z,15.50
2022-12-03T03:53:58.617Z,16.75
2022-12-03T03:54:30.610Z,17.00
2022-12-03T03:55:02.185Z,17.95
2022-12-03T03:55:34.076Z,18.65
2022-12-03T03:56:06.168Z,18.70
2022-12-03T03:56:37.671Z,18.85
2022-12-03T03:57:09.163Z,19.88
2022-12-03T03:57:40.734Z,17.73
2022-12-03T03:58:12.357Z,17.73
2022-12-03T03:58:43.882Z,17.00
2022-12-03T03:59:15.777Z,18.98
2022-12-03T03:59:47.240Z,18.35
2022-12-03T04:00:19.096Z,19.17
2022-12-03T04:00:51.746Z,18.45
2022-12-03T04:01:23.881Z,21.60
2022-12-03T04:01:55.454Z,18.17
2022-12-03T04:02:27.429Z,18.38
2022-12-03T04:02:58.895Z,18.63
2022-12-03T04:03:30.371Z,20.00
2022-12-03T04:04:02.006Z,19.50
2022-12-03T04:04:35.576Z,18.30
2022-12-03T04:05:08.033Z,19.67
2022-12-03T04:05:39.939Z,19.85
2022-12-03T04:06:11.472Z,17.75
2022-12-03T04:06:42.951Z,19.70
2022-12-03T04:07:15.706Z,17.33
2022-12-03T04:07:47.439Z,17.95
2022-12-03T04:08:19.479Z,19.55
2022-12-03T04:08:51.068Z,18.60
2022-12-03T04:09:22.513Z,20.17
2022-12-03T04:09:54.006Z,19.63
2022-12-03T04:10:43.789Z,19.67
2022-12-03T04:11:33.978Z,17.65
2022-12-03T04:12:24.065Z,18.85
2022-12-03T04:12:55.570Z,19.17
2022-12-03T04:13:27.104Z,18.95
2022-12-03T04:13:58.541Z,19.02
2022-12-03T04:14:30.002Z,19.85
2022-12-03T04:15:01.697Z,19.52
2022-12-03T04:15:33.203Z,18.25
2022-12-03T04:16:04.936Z,21.13
2022-12-03T04:16:36.477Z,18.90
2022-12-03T04:17:08.085Z,20.35
2022-12-03T04:17:39.550Z,19.42
2022-12-03T04:18:29.777Z,19.90
2022-12-03T04:19:01.241Z,19.13
2022-12-03T04:19:32.689Z,18.73
2022-12-03T04:20:04.948Z,20.20
2022-12-03T04:20:37.526Z,19.15
2022-12-03T04:21:35.736Z,19.00
2022-12-03T04:22:25.734Z,17.95
2022-12-03T04:22:57.219Z,17.42
2022-12-03T04:23:31.039Z,18.63
2022-12-03T04:24:03.462Z,18.45
2022-12-03T04:24:34.958Z,19.45
2022-12-03T04:25:27.105Z,21.30
2022-12-03T04:26:17.178Z,19.73
2022-12-03T04:27:07.140Z,18.88
2022-12-03T04:27:57.174Z,16.73
2022-12-03T04:28:47.926Z,17.23
2022-12-03T04:29:20.132Z,17.83
2022-12-03T04:29:51.614Z,20.15
2022-12-03T04:30:23.204Z,19.58
2022-12-03T04:30:54.778Z,19.45
2022-12-03T04:31:52.281Z,19.83
2022-12-03T04:32:42.045Z,17.92
2022-12-03T04:33:32.030Z,19.50
2022-12-03T04:34:21.957Z,17.77
2022-12-03T04:35:12.001Z,17.92
2022-12-03T04:35:43.584Z,19.13
2022-12-03T04:36:15.054Z,18.95
2022-12-03T04:36:47.133Z,19.83
2022-12-03T04:37:18.778Z,19.17
2022-12-03T04:37:50.292Z,20.02
2022-12-03T04:38:21.763Z,20.63
2022-12-03T04:39:11.829Z,20.80
2022-12-03T04:39:43.311Z,19.77
2022-12-03T04:40:33.462Z,20.20
2022-12-03T04:41:05.062Z,19.70
2022-12-03T04:41:36.609Z,20.70
2022-12-03T04:42:08.295Z,22.85
2022-12-03T04:42:39.827Z,19.50
2022-12-03T04:43:11.280Z,23.50
2022-12-03T04:44:01.326Z,21.10
2022-12-03T04:44:33.448Z,19.48
2022-12-03T04:45:05.254Z,20.15
2022-12-03T04:45:36.783Z,21.02
2022-12-03T04:46:08.358Z,20.33
2022-12-03T04:46:39.877Z,22.77
2022-12-03T04:47:16.560Z,21.08
2022-12-03T04:47:48.034Z,22.05
2022-12-03T04:48:19.504Z,21.55
2022-12-03T04:48:51.002Z,23.17
2022-12-03T04:49:22.716Z,22.73
2022-12-03T04:49:54.410Z,20.80
2022-12-03T04:50:25.887Z,22.38
2022-12-03T04:50:57.422Z,21.15
2022-12-03T04:51:28.938Z,20.75
2022-12-03T04:52:00.430Z,22.70
2022-12-03T04:52:31.870Z,22.75
2022-12-03T04:53:03.740Z,21.52
2022-12-03T04:53:36.300Z,25.80
2022-12-03T04:54:07.966Z,20.88
2022-12-03T04:54:40.354Z,19.58
2022-12-03T04:55:11.881Z,22.05
2022-12-03T04:55:43.413Z,25.77
2022-12-03T04:56:14.837Z,23.13
2022-12-03T04:56:46.585Z,23.45
2022-12-03T04:57:18.031Z,24.50
2022-12-03T04:57:49.479Z,22.65
2022-12-03T04:58:20.929Z,23.00
2022-12-03T04:58:52.523Z,22.05
2022-12-03T04:59:24.158Z,23.17
2022-12-03T04:59:55.601Z,23.33
2022-12-03T05:00:28.340Z,23.33
2022-12-03T05:00:59.905Z,24.80
2022-12-03T05:01:31.455Z,24.67
2022-12-03T05:02:04.243Z,24.05
2022-12-03T05:02:37.396Z,21.77
2022-12-03T05:03:09.114Z,24.63
2022-12-03T05:03:40.597Z,23.90
2022-12-03T05:04:13.247Z,22.85
2022-12-03T05:04:44.763Z,25.55
2022-12-03T05:05:16.337Z,24.17
2022-12-03T05:05:47.860Z,25.60
2022-12-03T05:06:19.345Z,22.77
2022-12-03T05:06:50.908Z,24.80
2022-12-03T05:07:22.357Z,25.63
2022-12-03T05:07:53.917Z,23.83
2022-12-03T05:08:25.540Z,25.02
2022-12-03T05:08:57.051Z,24.75
2022-12-03T05:09:29.050Z,24.50
2022-12-03T05:10:00.526Z,23.75
2022-12-03T05:10:32.028Z,24.23
2022-12-03T05:11:03.498Z,22.08
2022-12-03T05:11:35.117Z,24.13
2022-12-03T05:12:06.706Z,24.65
2022-12-03T05:12:38.233Z,24.30
2022-12-03T05:13:09.741Z,24.75
2022-12-03T05:13:43.019Z,22.73
2022-12-03T05:14:14.864Z,25.83
2022-12-03T05:14:46.340Z,25.60
2022-12-03T05:15:17.979Z,24.83
2022-12-03T05:15:49.901Z,25.13
2022-12-03T05:16:21.519Z,26.08
2022-12-03T05:16:53.080Z,25.15
2022-12-03T05:17:24.619Z,26.17
2022-12-03T05:17:56.095Z,26.42
2022-12-03T05:18:27.545Z,26.92
2022-12-03T05:19:00.131Z,24.45
2022-12-03T05:19:50.184Z,24.25
2022-12-03T05:20:39.996Z,23.25
2022-12-03T05:21:11.515Z,22.75
2022-12-03T05:21:42.987Z,22.90
2022-12-03T05:22:14.438Z,25.20
2022-12-03T05:22:46.828Z,25.48
2022-12-03T05:23:18.410Z,26.27
2022-12-03T05:23:50.979Z,23.90
2022-12-03T05:24:22.418Z,24.75
2022-12-03T05:24:54.201Z,24.33
2022-12-03T05:25:25.794Z,24.52
2022-12-03T05:25:57.337Z,24.80
2022-12-03T05:26:28.865Z,24.15
2022-12-03T05:27:00.340Z,23.73
2022-12-03T05:27:31.775Z,25.73
2022-12-03T05:28:04.052Z,23.65
2022-12-03T05:28:35.617Z,26.08
2022-12-03T05:29:07.099Z,21.85
2022-12-03T05:29:38.633Z,24.95
2022-12-03T05:30:10.610Z,24.13
2022-12-03T05:30:42.208Z,25.52
2022-12-03T05:31:13.819Z,24.20
2022-12-03T05:31:45.388Z,24.95
2022-12-03T05:32:16.868Z,24.45
2022-12-03T05:32:48.391Z,22.80
2022-12-03T05:33:20.572Z,23.75
2022-12-03T05:33:52.185Z,22.95
2022-12-03T05:34:23.717Z,24.77
2022-12-03T05:34:55.571Z,22.85
2022-12-03T05:35:27.609Z,24.60
2022-12-03T05:35:59.126Z,24.75
2022-12-03T05:36:30.632Z,24.25
2022-12-03T05:37:02.233Z,25.45
2022-12-03T05:37:33.682Z,25.15
2022-12-03T05:38:05.187Z,23.23
2022-12-03T05:38:36.654Z,25.90
2022-12-03T05:39:08.094Z,24.33
2022-12-03T05:39:39.553Z,23.82
2022-12-03T05:40:12.179Z,23.45
2022-12-03T05:40:43.650Z,26.33
2022-12-03T05:41:34.062Z,24.73
2022-12-03T05:42:24.154Z,24.50
2022-12-03T05:42:56.994Z,24.42
2022-12-03T05:43:28.534Z,24.38
2022-12-03T05:44:00.009Z,23.52
2022-12-03T05:44:31.772Z,23.02
2022-12-03T05:45:03.767Z,24.92
2022-12-03T05:45:42.581Z,23.60
2022-12-03T05:46:14.109Z,25.45
2022-12-03T05:46:45.671Z,23.85
2022-12-03T05:47:17.212Z,24.08
2022-12-03T05:47:48.756Z,25.70
2022-12-03T05:48:20.280Z,24.30
2022-12-03T05:48:51.724Z,24.80
2022-12-03T05:49:23.174Z,24.05
2022-12-03T05:49:54.616Z,26.45
2022-12-03T05:50:28.923Z,24.77
2022-12-03T05:51:00.380Z,24.10
2022-12-03T05:51:31.831Z,24.90
2022-12-03T05:52:03.389Z,24.55
2022-12-03T05:52:34.892Z,25.92
2022-12-03T05:53:06.405Z,23.80
2022-12-03T05:53:37.986Z,24.02
2022-12-03T05:54:09.526Z,24.13
2022-12-03T05:54:40.996Z,24.60
2022-12-03T05:55:12.533Z,25.42
2022-12-03T05:55:44.004Z,25.67
2022-12-03T05:56:15.449Z,26.00
2022-12-03T05:56:46.890Z,27.25
2022-12-03T05:57:18.548Z,25.98
2022-12-03T05:57:50.298Z,25.55
2022-12-03T05:58:21.754Z,26.70
2022-12-03T05:58:53.293Z,25.63
2022-12-03T05:59:26.061Z,26.17
2022-12-03T05:59:57.640Z,24.05
2022-12-03T06:00:31.405Z,26.60
2022-12-03T06:01:03.033Z,24.30
2022-12-03T06:01:34.519Z,26.38
2022-12-03T06:02:06.019Z,27.25
2022-12-03T06:02:37.610Z,26.63
2022-12-03T06:03:09.318Z,25.65
2022-12-03T06:03:40.992Z,24.83
2022-12-03T06:04:12.538Z,25.40
2022-12-03T06:04:44.719Z,24.60
2022-12-03T06:05:19.413Z,25.80
2022-12-03T06:05:50.981Z,25.55
2022-12-03T06:06:22.405Z,25.08
2022-12-03T06:06:54.502Z,24.90
2022-12-03T06:07:26.362Z,26.02
2022-12-03T06:07:57.906Z,28.80
2022-12-03T06:08:29.552Z,24.80
2022-12-03T06:09:01.065Z,27.83
2022-12-03T06:09:32.528Z,27.60
2022-12-03T06:10:05.465Z,27.88
2022-12-03T06:10:37.544Z,26.75
2022-12-03T06:11:09.015Z,25.98
2022-12-03T06:11:41.295Z,26.20
2022-12-03T06:12:12.749Z,25.65
2022-12-03T06:12:44.348Z,27.27
2022-12-03T06:13:16.252Z,27.35
2022-12-03T06:13:47.693Z,25.55
2022-12-03T06:14:19.128Z,26.48
2022-12-03T06:14:50.810Z,28.27
2022-12-03T06:15:22.659Z,26.05
2022-12-03T06:15:54.147Z,28.00
2022-12-03T06:16:25.703Z,25.98
2022-12-03T06:16:57.182Z,26.83
2022-12-03T06:17:28.669Z,29.02
2022-12-03T06:18:00.117Z,24.73
2022-12-03T06:18:31.558Z,28.77
2022-12-03T06:19:03.029Z,25.98
2022-12-03T06:19:34.738Z,27.83
2022-12-03T06:20:07.318Z,29.05
2022-12-03T06:20:39.023Z,26.20
2022-12-03T06:21:10.523Z,28.75
2022-12-03T06:21:41.966Z,25.60
2022-12-03T06:22:13.486Z,26.88
2022-12-03T06:22:45.125Z,26.63
2022-12-03T06:23:16.586Z,27.85
2022-12-03T06:23:48.024Z,27.10
2022-12-03T06:24:19.474Z,27.77
2022-12-03T06:24:51.309Z,26.85
2022-12-03T06:25:23.119Z,26.67
2022-12-03T06:25:54.639Z,27.40
2022-12-03T06:26:26.081Z,29.33
2022-12-03T06:26:57.530Z,27.36
2022-12-03T06:27:29.012Z,28.00
2022-12-03T06:28:00.476Z,24.52
2022-12-03T06:28:31.947Z,29.52
2022-12-03T06:29:03.461Z,28.65
2022-12-03T06:29:35.084Z,29.17
2022-12-03T06:30:08.598Z,27.20
2022-12-03T06:30:40.218Z,27.15
2022-12-03T06:31:12.589Z,26.63
2022-12-03T06:31:44.367Z,26.75
2022-12-03T06:32:15.947Z,27.58
2022-12-03T06:32:47.450Z,25.00
2022-12-03T06:33:18.905Z,29.40
2022-12-03T06:33:50.356Z,28.00
2022-12-03T06:34:21.822Z,28.58
2022-12-03T06:34:53.578Z,28.02
2022-12-03T06:35:25.252Z,29.35
2022-12-03T06:35:56.765Z,28.67
2022-12-03T06:36:28.281Z,30.45
2022-12-03T06:36:59.809Z,29.85
2022-12-03T06:37:31.339Z,28.90
2022-12-03T06:38:02.926Z,27.88
2022-12-03T06:38:34.368Z,28.60
2022-12-03T06:39:05.826Z,28.48
2022-12-03T06:39:37.276Z,29.02
2022-12-03T06:40:09.185Z,27.58
2022-12-03T06:40:40.662Z,29.48
2022-12-03T06:41:12.354Z,29.60
2022-12-03T06:41:43.872Z,30.63
2022-12-03T06:42:15.326Z,31.25
2022-12-03T06:42:46.982Z,26.75
2022-12-03T06:43:18.460Z,29.73
2022-12-03T06:43:49.890Z,27.40
2022-12-03T06:44:21.544Z,29.08
2022-12-03T06:44:53.362Z,28.58
2022-12-03T06:45:24.957Z,29.76
2022-12-03T06:45:56.718Z,28.73
2022-12-03T06:46:29.003Z,29.90
2022-12-03T06:47:00.636Z,27.48
2022-12-03T06:47:32.167Z,30.67
2022-12-03T06:48:03.778Z,29.02
2022-12-03T06:48:35.337Z,32.65
2022-12-03T06:49:09.146Z,31.58
2022-12-03T06:49:40.652Z,27.63
2022-12-03T06:50:13.328Z,27.92
2022-12-03T06:50:44.801Z,29.45
2022-12-03T06:51:19.143Z,30.52
2022-12-03T06:51:50.639Z,30.15
2022-12-03T06:52:22.371Z,31.77
2022-12-03T06:52:53.877Z,32.08
2022-12-03T06:53:25.330Z,30.75
2022-12-03T06:53:56.821Z,31.04
2022-12-03T06:54:28.412Z,28.48
2022-12-03T06:55:00.045Z,25.38
2022-12-03T06:55:31.518Z,30.80
2022-12-03T06:56:02.990Z,29.45
2022-12-03T06:56:39.118Z,30.42
2022-12-03T06:57:15.020Z,31.33
2022-12-03T06:57:46.538Z,30.65
2022-12-03T06:58:18.008Z,27.00
2022-12-03T06:58:49.477Z,30.33
2022-12-03T06:59:20.992Z,30.38
2022-12-03T06:59:52.800Z,30.25
2022-12-03T07:00:24.490Z,29.48
2022-12-03T07:00:55.957Z,29.05
2022-12-03T07:01:27.433Z,28.60
2022-12-03T07:01:58.962Z,29.88
2022-12-03T07:02:30.517Z,28.27
2022-12-03T07:03:02.391Z,27.50
2022-12-03T07:03:33.903Z,27.75
2022-12-03T07:04:05.598Z,29.65
2022-12-03T07:04:38.368Z,28.17
2022-12-03T07:05:11.619Z,27.42
2022-12-03T07:05:43.072Z,27.67